Time;durP1;ratioP1;P1;durP2;ratioP2;P2;SDS_P1;SDS_P2;PMS_P1;PMS_P2;Temp;Humidity;BMP_temperature;BMP_pressure;BME280_temperature;BME280_humidity;BME280_pressure;Samples;Min_cycle;Max_cycle;Signal;HPM_P1;HPM_P2
2021/12/15 00:01:20;;;;;;;7.73;2.67;;;11.80;99.90;;;;;;5114116;28;20189;-65
2021/12/15 00:04:07;;;;;;;10.57;2.70;;;11.80;99.90;;;;;;5120406;27;20260;-65
2021/12/15 00:06:54;;;;;;;5.80;2.27;;;11.80;99.90;;;;;;5106854;28;20235;-65
2021/12/15 00:09:40;;;;;;;9.17;2.73;;;11.80;99.90;;;;;;5092662;27;20200;-65
2021/12/15 00:12:27;;;;;;;4.77;2.70;;;11.80;99.90;;;;;;5113254;28;20212;-65
2021/12/15 00:15:15;;;;;;;8.50;2.70;;;11.80;99.90;;;;;;5117411;28;20188;-66
2021/12/15 00:18:02;;;;;;;7.60;2.57;;;11.80;99.90;;;;;;5101011;28;20192;-64
2021/12/15 00:20:49;;;;;;;11.40;2.73;;;11.80;99.90;;;;;;5113460;28;20243;-62
2021/12/15 00:23:38;;;;;;;4.80;2.50;;;11.80;99.90;;;;;;5116512;27;20633;-64
2021/12/15 00:26:27;;;;;;;4.13;2.50;;;11.80;99.90;;;;;;5122584;28;20189;-63
2021/12/15 00:29:14;;;;;;;6.33;2.53;;;11.80;99.90;;;;;;5112005;28;20189;-62
2021/12/15 00:32:04;;;;;;;11.57;3.10;;;11.80;99.90;;;;;;5120121;28;20196;-64
2021/12/15 00:34:51;;;;;;;8.37;2.73;;;11.70;99.90;;;;;;5128470;27;20208;-65
2021/12/15 00:37:38;;;;;;;12.83;2.77;;;11.70;99.90;;;;;;5088518;27;20185;-62
2021/12/15 00:40:26;;;;;;;5.30;2.50;;;11.70;99.90;;;;;;5116681;27;20200;-64
2021/12/15 00:43:13;;;;;;;7.00;2.00;;;11.70;99.90;;;;;;5121695;27;20557;-64
2021/12/15 00:46:00;;;;;;;4.90;2.20;;;11.70;99.90;;;;;;5115480;27;20544;-64
2021/12/15 00:48:48;;;;;;;7.73;2.27;;;11.70;99.90;;;;;;5108203;27;20186;-63
2021/12/15 00:51:38;;;;;;;5.73;2.30;;;11.70;99.90;;;;;;5120670;27;20181;-62
2021/12/15 00:54:27;;;;;;;7.53;2.17;;;11.70;99.90;;;;;;5124322;27;20193;-64
2021/12/15 00:57:13;;;;;;;6.23;2.30;;;11.60;99.90;;;;;;5092102;27;20760;-64
2021/12/15 01:00:03;;;;;;;4.67;2.10;;;11.50;99.90;;;;;;5127663;27;20588;-63
2021/12/15 01:02:52;;;;;;;3.63;1.93;;;11.50;99.90;;;;;;5137040;27;20177;-63
2021/12/15 01:05:45;;;;;;;6.63;2.03;;;11.50;99.90;;;;;;5111487;27;20200;-62
2021/12/15 01:08:36;;;;;;;7.73;2.20;;;11.50;99.90;;;;;;5131426;27;20177;-62
2021/12/15 01:12:06;;;;;;;5.17;2.20;;;11.40;99.90;;;;;;5106597;27;20177;-64
2021/12/15 01:21:04;;;;;;;6.33;2.03;;;11.30;99.90;;;;;;5123923;27;20199;-63
2021/12/15 01:23:51;;;;;;;5.90;2.37;;;11.30;99.90;;;;;;5133133;27;20192;-63
2021/12/15 01:26:38;;;;;;;7.70;2.10;;;11.30;99.90;;;;;;5134357;27;20191;-63
2021/12/15 01:29:25;;;;;;;5.93;2.40;;;11.30;99.90;;;;;;5133261;27;20187;-63
2021/12/15 01:32:12;;;;;;;5.07;2.10;;;11.40;99.90;;;;;;5135694;27;20256;-62
2021/12/15 01:34:58;;;;;;;4.33;2.00;;;11.40;99.90;;;;;;5123493;27;20627;-62
2021/12/15 01:37:46;;;;;;;5.43;1.97;;;11.40;99.90;;;;;;5120674;27;20272;-63
2021/12/15 01:40:40;;;;;;;5.00;2.00;;;11.50;99.90;;;;;;5120377;27;20520;-65
2021/12/15 01:43:50;;;;;;;9.30;2.20;;;11.50;99.90;;;;;;5111395;27;20193;-64
2021/12/15 01:46:56;;;;;;;4.90;2.20;;;11.50;99.90;;;;;;5120177;27;20200;-65
2021/12/15 01:49:53;;;;;;;4.57;2.23;;;11.50;99.90;;;;;;5127006;27;20271;-63
2021/12/15 01:52:42;;;;;;;10.20;2.20;;;11.50;99.90;;;;;;5122058;27;20650;-62
2021/12/15 01:55:29;;;;;;;7.47;2.40;;;11.50;99.90;;;;;;5128282;27;20176;-63
2021/12/15 01:58:16;;;;;;;7.30;2.50;;;11.60;99.90;;;;;;5117760;27;20184;-65
2021/12/15 02:01:08;;;;;;;4.27;2.03;;;11.60;99.90;;;;;;5121644;27;20250;-63
2021/12/15 02:03:55;;;;;;;4.47;2.00;;;11.60;99.90;;;;;;5123708;27;20193;-64
2021/12/15 02:06:44;;;;;;;6.53;2.20;;;11.60;99.90;;;;;;5122090;27;20195;-65
2021/12/15 02:10:01;;;;;;;6.30;2.00;;;11.50;99.90;;;;;;5122118;27;20180;-65
2021/12/15 02:12:43;;;;;;;5.37;2.10;;;11.50;99.90;;;;;;5116623;27;20172;-65
2021/12/15 02:15:36;;;;;;;3.67;2.00;;;11.50;99.90;;;;;;5100047;28;20624;-64
2021/12/15 02:18:30;;;;;;;7.40;2.03;;;11.50;99.90;;;;;;5106439;27;20264;-65
2021/12/15 02:21:23;;;;;;;6.87;2.20;;;11.50;99.90;;;;;;5119075;27;20193;-65
2021/12/15 02:24:09;;;;;;;9.83;2.80;;;11.50;99.90;;;;;;5115457;27;20249;-64
2021/12/15 02:26:59;;;;;;;7.23;2.30;;;11.60;99.90;;;;;;5123818;27;20180;-65
2021/12/15 02:29:50;;;;;;;4.77;2.30;;;11.60;99.90;;;;;;5108088;27;20265;-64
2021/12/15 02:32:52;;;;;;;3.50;1.90;;;11.60;99.90;;;;;;5114384;27;20174;-65
2021/12/15 02:38:46;;;;;;;2.37;1.80;;;11.70;99.90;;;;;;5116930;27;20224;-64
2021/12/15 02:41:34;;;;;;;5.53;2.23;;;11.70;99.90;;;;;;5123287;27;20181;-65
2021/12/15 02:44:24;;;;;;;4.10;2.20;;;11.70;99.90;;;;;;5105881;27;20212;-65
2021/12/15 02:47:14;;;;;;;3.03;1.80;;;11.70;99.90;;;;;;5112360;27;20276;-65
2021/12/15 02:50:05;;;;;;;3.93;1.80;;;11.70;99.90;;;;;;5100683;28;20606;-64
2021/12/15 02:52:53;;;;;;;3.60;1.97;;;11.60;99.90;;;;;;5100430;28;20208;-65
2021/12/15 02:55:40;;;;;;;4.13;1.77;;;11.60;99.90;;;;;;5102612;28;20199;-65
2021/12/15 02:58:32;;;;;;;6.90;2.90;;;11.50;99.90;;;;;;5100976;28;20205;-65
2021/12/15 03:01:32;;;;;;;7.43;2.20;;;11.50;99.90;;;;;;5090683;28;20196;-65
2021/12/15 03:04:40;;;;;;;3.33;1.73;;;11.50;99.90;;;;;;5101531;28;20216;-64
2021/12/15 03:16:32;;;;;;;5.00;1.83;;;11.60;99.90;;;;;;5097242;28;20616;-61
2021/12/15 03:19:18;;;;;;;2.77;1.77;;;11.60;99.90;;;;;;5102217;28;20273;-64
2021/12/15 03:22:05;;;;;;;3.17;1.50;;;11.70;99.90;;;;;;5111244;27;20242;-62
2021/12/15 03:24:52;;;;;;;4.13;1.40;;;11.70;99.90;;;;;;5097862;28;20699;-63
2021/12/15 03:34:13;;;;;;;2.70;1.50;;;11.60;99.90;;;;;;5100888;28;20190;-62
2021/12/15 03:39:49;;;;;;;3.30;1.30;;;11.60;99.90;;;;;;5090392;28;20224;-62
2021/12/15 03:42:48;;;;;;;2.40;1.30;;;11.60;99.90;;;;;;5108162;28;20181;-63
2021/12/15 03:45:48;;;;;;;2.50;1.20;;;11.50;99.90;;;;;;5088257;28;20201;-62
2021/12/15 03:48:39;;;;;;;5.73;1.40;;;11.50;99.90;;;;;;5097930;28;20177;-65
2021/12/15 03:51:27;;;;;;;5.67;1.53;;;11.50;99.90;;;;;;5100879;28;20276;-62
2021/12/15 03:54:14;;;;;;;1.43;1.20;;;11.50;99.90;;;;;;5103781;28;20189;-62
2021/12/15 03:57:01;;;;;;;3.40;1.47;;;11.50;99.90;;;;;;5101051;28;20173;-61
2021/12/15 03:59:48;;;;;;;4.70;1.27;;;11.50;99.90;;;;;;5102911;28;20197;-63
2021/12/15 04:02:36;;;;;;;1.87;0.87;;;11.50;99.90;;;;;;5101711;28;20277;-61
2021/12/15 04:05:22;;;;;;;2.10;1.17;;;11.50;99.90;;;;;;5102651;28;20200;-62
2021/12/15 04:08:09;;;;;;;2.03;0.97;;;11.50;99.90;;;;;;5068105;28;20286;-62
2021/12/15 04:10:59;;;;;;;1.63;0.93;;;11.50;99.90;;;;;;5102165;28;20246;-60
2021/12/15 04:13:47;;;;;;;1.33;1.10;;;11.50;99.90;;;;;;5104393;28;20182;-61
2021/12/15 04:19:22;;;;;;;3.27;1.10;;;11.60;99.90;;;;;;5106864;27;20191;-63
2021/12/15 04:22:08;;;;;;;3.33;1.30;;;11.60;99.90;;;;;;5100946;27;20185;-62
2021/12/15 04:24:58;;;;;;;3.17;1.33;;;11.60;99.90;;;;;;5081507;28;20198;-62
2021/12/15 04:27:56;;;;;;;5.67;1.77;;;11.70;99.90;;;;;;5096494;28;20196;-62
2021/12/15 04:30:49;;;;;;;3.47;1.70;;;11.70;99.90;;;;;;5103186;28;20278;-61
2021/12/15 04:33:44;;;;;;;3.93;1.40;;;11.70;99.90;;;;;;5101660;27;20718;-62
2021/12/15 04:36:42;;;;;;;1.77;1.07;;;11.70;99.90;;;;;;5101647;27;20174;-63
2021/12/15 04:39:30;;;;;;;2.60;1.10;;;11.70;99.90;;;;;;5098026;28;20218;-63
2021/12/15 04:42:19;;;;;;;3.60;1.40;;;11.70;99.90;;;;;;5097686;27;20835;-63
2021/12/15 04:45:08;;;;;;;1.67;1.20;;;11.70;99.90;;;;;;5115359;27;20295;-63
2021/12/15 04:47:57;;;;;;;4.30;1.33;;;11.60;99.90;;;;;;5116878;27;20232;-63
2021/12/15 04:50:43;;;;;;;7.40;1.60;;;11.70;99.90;;;;;;5125550;27;20216;-62
2021/12/15 04:53:30;;;;;;;1.53;1.20;;;11.70;99.90;;;;;;5127265;27;20226;-62
2021/12/15 04:56:18;;;;;;;6.53;1.50;;;11.70;99.90;;;;;;5127835;27;20239;-62
2021/12/15 04:59:05;;;;;;;2.80;1.63;;;11.60;99.90;;;;;;5127625;27;20596;-62
2021/12/15 05:01:52;;;;;;;4.17;1.60;;;11.60;99.90;;;;;;5109172;27;20214;-63
2021/12/15 05:04:41;;;;;;;3.73;1.63;;;11.60;99.90;;;;;;5126084;27;20215;-63
2021/12/15 05:07:27;;;;;;;3.47;1.83;;;11.50;99.90;;;;;;5126010;27;20185;-63
2021/12/15 05:10:14;;;;;;;3.13;1.50;;;11.50;99.90;;;;;;5116100;27;20208;-62
2021/12/15 05:13:01;;;;;;;2.37;1.30;;;11.50;99.90;;;;;;5125150;27;20185;-62
2021/12/15 05:15:48;;;;;;;5.23;1.40;;;11.50;99.90;;;;;;5124520;27;20181;-63
2021/12/15 05:18:36;;;;;;;1.20;1.10;;;11.40;99.90;;;;;;5117717;27;22054;-60
2021/12/15 05:21:23;;;;;;;1.93;1.20;;;11.40;99.90;;;;;;5123751;27;20242;-63
2021/12/15 05:24:22;;;;;;;4.50;1.10;;;11.50;99.90;;;;;;5102493;27;20631;-62
2021/12/15 05:27:13;;;;;;;7.13;1.40;;;11.50;99.90;;;;;;5105588;28;20256;-62
2021/12/15 05:30:00;;;;;;;1.93;1.30;;;11.50;99.90;;;;;;5125435;27;20215;-63
2021/12/15 05:32:48;;;;;;;2.83;1.40;;;11.60;99.90;;;;;;5124600;27;20189;-62
2021/12/15 05:35:36;;;;;;;1.80;1.33;;;11.60;99.90;;;;;;5125460;27;20862;-63
2021/12/15 05:38:25;;;;;;;2.70;1.23;;;11.70;99.90;;;;;;5125071;27;20225;-62
2021/12/15 05:41:12;;;;;;;3.40;1.10;;;11.70;99.90;;;;;;5120805;27;20193;-63
2021/12/15 05:43:59;;;;;;;2.30;1.40;;;11.80;99.90;;;;;;5132554;27;20272;-64
2021/12/15 05:46:46;;;;;;;3.17;1.23;;;11.80;99.90;;;;;;5124990;27;20355;-64
2021/12/15 05:49:36;;;;;;;9.23;1.70;;;11.80;99.90;;;;;;5116978;27;20181;-63
2021/12/15 05:52:28;;;;;;;8.03;1.70;;;11.80;99.90;;;;;;5123474;27;20253;-62
2021/12/15 05:55:16;;;;;;;8.93;1.87;;;11.90;99.90;;;;;;5124469;27;20776;-63
2021/12/15 05:58:05;;;;;;;6.50;1.80;;;11.90;99.90;;;;;;5105266;27;20185;-64
2021/12/15 06:00:52;;;;;;;4.30;2.00;;;11.90;99.90;;;;;;5105502;27;20197;-64
2021/12/15 06:03:39;;;;;;;3.93;1.60;;;11.90;99.90;;;;;;5120412;27;20604;-64
2021/12/15 06:06:25;;;;;;;3.63;1.93;;;11.90;99.90;;;;;;5124037;27;20189;-64
2021/12/15 06:09:14;;;;;;;3.23;1.40;;;11.90;99.90;;;;;;5124668;27;20185;-64
2021/12/15 06:12:02;;;;;;;2.03;1.43;;;11.90;99.90;;;;;;5104214;28;20220;-63
2021/12/15 06:14:49;;;;;;;2.97;1.90;;;11.80;99.90;;;;;;5105271;28;20181;-63
2021/12/15 06:17:36;;;;;;;2.80;1.60;;;11.80;99.90;;;;;;5110062;27;20193;-64
2021/12/15 06:20:25;;;;;;;5.20;1.83;;;11.80;99.90;;;;;;5108883;27;20316;-63
2021/12/15 06:23:17;;;;;;;5.20;2.10;;;11.80;99.90;;;;;;5106857;27;20185;-63
2021/12/15 06:26:06;;;;;;;8.40;2.20;;;11.90;99.90;;;;;;5122168;27;20184;-64
2021/12/15 06:28:53;;;;;;;11.13;2.47;;;11.90;99.90;;;;;;5124205;27;20197;-62
2021/12/15 06:31:40;;;;;;;7.00;2.27;;;11.90;99.90;;;;;;5089940;28;20190;-63
2021/12/15 06:34:27;;;;;;;6.57;2.43;;;11.80;99.90;;;;;;5107044;27;20212;-64
2021/12/15 06:37:14;;;;;;;11.47;2.30;;;11.70;99.90;;;;;;5105174;27;20192;-63
2021/12/15 06:40:03;;;;;;;9.80;2.53;;;11.70;99.90;;;;;;5104768;28;20272;-63
2021/12/15 06:42:51;;;;;;;4.13;1.97;;;11.60;99.90;;;;;;5115667;27;20915;-62
2021/12/15 06:45:51;;;;;;;3.00;2.37;;;11.70;99.90;;;;;;5101052;27;20235;-62
2021/12/15 07:00:57;;;;;;;4.87;2.80;;;11.60;99.90;;;;;;5108738;27;20285;-63
2021/12/15 07:03:44;;;;;;;4.67;2.00;;;11.70;99.90;;;;;;5110923;27;20199;-64
2021/12/15 07:06:30;;;;;;;3.30;1.70;;;11.70;99.90;;;;;;5102377;28;20185;-63
2021/12/15 07:09:18;;;;;;;2.67;1.43;;;11.80;99.90;;;;;;5102780;28;20200;-64
2021/12/15 07:12:06;;;;;;;6.53;1.77;;;11.80;99.90;;;;;;5102445;27;20216;-65
2021/12/15 07:14:53;;;;;;;5.63;1.70;;;11.70;99.90;;;;;;5095949;27;20187;-64
2021/12/15 07:17:40;;;;;;;3.43;1.80;;;11.80;99.90;;;;;;5105261;27;20204;-64
2021/12/15 07:20:35;;;;;;;2.70;1.73;;;11.80;99.90;;;;;;5100062;28;20241;-65
2021/12/15 07:23:23;;;;;;;2.23;1.60;;;11.80;99.90;;;;;;5097725;28;20268;-64
2021/12/15 07:26:09;;;;;;;2.47;1.53;;;11.90;99.90;;;;;;5102643;28;20182;-63
2021/12/15 07:28:56;;;;;;;2.10;1.70;;;12.00;99.90;;;;;;5102153;28;20185;-64
2021/12/15 07:31:43;;;;;;;3.70;1.57;;;12.20;99.90;;;;;;5105206;28;20478;-65
2021/12/15 07:34:30;;;;;;;5.73;1.80;;;12.30;99.90;;;;;;5098197;28;20209;-64
2021/12/15 07:37:17;;;;;;;2.23;1.60;;;12.40;99.90;;;;;;5101526;28;20221;-64
2021/12/15 07:40:12;;;;;;;5.13;1.60;;;12.30;99.90;;;;;;5104712;28;20182;-62
2021/12/15 07:43:09;;;;;;;4.93;1.50;;;12.20;99.90;;;;;;5111475;28;20193;-61
2021/12/15 07:46:03;;;;;;;6.20;1.80;;;12.20;99.90;;;;;;5097096;28;20205;-62
2021/12/15 07:48:50;;;;;;;4.73;1.73;;;12.10;99.90;;;;;;5102553;28;20196;-64
2021/12/15 07:51:37;;;;;;;3.40;2.10;;;12.10;99.90;;;;;;5086852;28;20195;-64
2021/12/15 07:54:24;;;;;;;5.93;2.20;;;12.20;99.90;;;;;;5087843;28;20215;-62
2021/12/15 07:57:19;;;;;;;4.37;1.90;;;12.30;99.90;;;;;;5103488;27;20201;-65
2021/12/15 08:00:12;;;;;;;3.00;1.80;;;12.40;99.90;;;;;;5104667;27;20929;-65
2021/12/15 08:02:59;;;;;;;3.27;2.00;;;12.40;99.90;;;;;;5100498;27;20203;-65
2021/12/15 08:05:50;;;;;;;3.23;1.90;;;12.60;99.90;;;;;;5097790;27;20241;-65
2021/12/15 08:08:37;;;;;;;6.90;2.20;;;12.60;99.90;;;;;;5100756;27;20182;-66
2021/12/15 08:11:24;;;;;;;3.37;1.90;;;12.60;99.90;;;;;;5098326;28;20189;-66
2021/12/15 08:14:11;;;;;;;5.70;2.10;;;12.60;99.90;;;;;;5093023;27;20185;-66
2021/12/15 08:16:57;;;;;;;4.73;2.10;;;12.70;99.90;;;;;;5100363;27;20731;-66
2021/12/15 08:19:44;;;;;;;3.10;2.03;;;12.70;99.90;;;;;;5106606;27;20676;-65
2021/12/15 08:22:31;;;;;;;3.67;2.13;;;12.70;99.90;;;;;;5084137;28;20197;-66
2021/12/15 08:25:20;;;;;;;3.30;1.90;;;12.60;99.90;;;;;;5093762;27;20202;-66
2021/12/15 08:28:09;;;;;;;5.03;1.93;;;12.70;99.90;;;;;;5105950;27;20193;-67
2021/12/15 08:30:56;;;;;;;5.90;2.10;;;12.70;99.90;;;;;;5083764;27;20900;-65
2021/12/15 08:33:43;;;;;;;9.23;2.70;;;12.70;99.90;;;;;;5099510;28;20595;-65
2021/12/15 08:36:32;;;;;;;3.33;1.90;;;12.70;99.90;;;;;;5104105;27;20227;-66
2021/12/15 08:39:19;;;;;;;4.67;2.23;;;12.70;99.90;;;;;;5097626;27;20212;-66
2021/12/15 08:42:07;;;;;;;6.87;2.20;;;12.70;99.90;;;;;;5103978;27;20189;-65
2021/12/15 08:44:53;;;;;;;6.53;2.20;;;12.70;99.90;;;;;;5075943;28;20264;-66
2021/12/15 08:47:40;;;;;;;4.17;1.90;;;12.70;99.90;;;;;;5089812;27;20181;-65
2021/12/15 08:50:33;;;;;;;6.17;2.03;;;12.70;99.90;;;;;;5103526;27;20533;-65
2021/12/15 08:53:20;;;;;;;7.80;1.90;;;12.70;99.90;;;;;;5101405;27;20217;-65
2021/12/15 08:56:08;;;;;;;5.27;2.07;;;12.70;99.90;;;;;;5097762;27;20188;-65
2021/12/15 08:58:55;;;;;;;3.67;2.10;;;12.80;99.90;;;;;;5110031;27;20698;-66
2021/12/15 09:01:44;;;;;;;4.10;1.90;;;12.80;99.90;;;;;;5100768;27;20194;-66
2021/12/15 09:04:31;;;;;;;5.37;2.10;;;12.80;99.90;;;;;;5092630;28;20213;-66
2021/12/15 09:07:18;;;;;;;7.73;2.17;;;12.80;99.90;;;;;;5093017;27;20200;-65
2021/12/15 09:10:09;;;;;;;9.73;2.27;;;12.80;99.90;;;;;;5107924;27;20184;-64
2021/12/15 09:12:59;;;;;;;4.13;1.90;;;12.80;99.90;;;;;;5109345;27;20288;-65
2021/12/15 09:15:46;;;;;;;4.57;1.90;;;12.80;99.90;;;;;;5105200;27;20196;-66
2021/12/15 09:18:36;;;;;;;4.03;1.80;;;12.80;99.90;;;;;;5093253;27;20201;-66
2021/12/15 09:21:27;;;;;;;12.43;3.27;;;12.80;99.90;;;;;;5101891;27;20845;-65
2021/12/15 09:24:14;;;;;;;5.30;2.27;;;12.80;99.90;;;;;;5089718;27;20530;-66
2021/12/15 09:27:01;;;;;;;7.03;1.87;;;12.80;99.90;;;;;;5097190;27;20948;-65
2021/12/15 09:29:48;;;;;;;4.53;2.13;;;12.80;99.90;;;;;;5110571;27;20226;-66
2021/12/15 09:32:36;;;;;;;5.10;2.13;;;12.80;99.90;;;;;;5105061;27;20180;-67
2021/12/15 09:35:26;;;;;;;4.43;2.10;;;12.90;99.90;;;;;;5103791;27;20227;-66
2021/12/15 09:38:16;;;;;;;5.90;2.53;;;12.90;99.90;;;;;;5102569;27;20181;-67
2021/12/15 09:41:08;;;;;;;2.83;1.73;;;12.90;99.90;;;;;;5090327;27;21432;-66
2021/12/15 09:43:58;;;;;;;4.03;2.30;;;12.90;99.90;;;;;;5105874;27;20194;-65
2021/12/15 10:02:14;;;;;;;5.70;1.73;;;13.00;99.90;;;;;;5096186;28;20190;-66
2021/12/15 10:17:42;;;;;;;3.93;1.90;;;13.30;99.90;;;;;;5095602;28;21003;-66
2021/12/15 10:20:31;;;;;;;6.27;1.93;;;13.30;99.90;;;;;;5107337;27;20672;-67
2021/12/15 10:23:34;;;;;;;3.23;1.73;;;13.30;99.90;;;;;;5092064;27;20198;-66
2021/12/15 10:26:21;;;;;;;3.97;1.50;;;13.30;99.90;;;;;;5103729;27;20321;-66
2021/12/15 10:29:09;;;;;;;6.63;2.00;;;13.30;99.90;;;;;;5091245;27;20697;-66
2021/12/15 10:32:06;;;;;;;3.90;1.77;;;13.30;99.90;;;;;;5083680;28;20907;-66
2021/12/15 10:35:30;;;;;;;5.03;1.80;;;13.30;99.90;;;;;;5105946;27;20850;-66
2021/12/15 10:38:28;;;;;;;4.23;1.93;;;13.30;99.90;;;;;;5100630;27;20264;-64
2021/12/15 10:41:33;;;;;;;4.53;1.70;;;13.30;99.90;;;;;;5082916;28;20293;-65
2021/12/15 10:44:26;;;;;;;4.27;1.50;;;13.40;99.90;;;;;;5112088;27;20584;-65
2021/12/15 10:47:23;;;;;;;3.33;1.73;;;13.40;99.90;;;;;;5112684;27;20214;-66
2021/12/15 10:50:19;;;;;;;4.77;2.17;;;13.50;99.90;;;;;;5125091;27;20668;-67
2021/12/15 10:53:07;;;;;;;7.13;1.70;;;13.50;99.90;;;;;;5123677;27;20204;-67
2021/12/15 10:55:55;;;;;;;2.43;1.50;;;13.50;99.90;;;;;;5102124;27;20204;-65
2021/12/15 10:58:49;;;;;;;3.20;1.80;;;13.60;99.90;;;;;;5116347;27;20573;-65
2021/12/15 11:01:49;;;;;;;5.10;1.83;;;13.60;99.90;;;;;;5115966;27;20388;-66
2021/12/15 11:04:46;;;;;;;4.43;2.33;;;13.60;99.90;;;;;;5127494;27;20311;-66
2021/12/15 11:07:41;;;;;;;4.50;1.73;;;13.60;99.90;;;;;;5122420;27;20192;-65
2021/12/15 11:10:38;;;;;;;5.93;1.60;;;13.90;99.90;;;;;;5101387;27;20713;-66
2021/12/15 11:13:31;;;;;;;4.03;1.50;;;14.00;99.90;;;;;;5119954;27;20191;-66
2021/12/15 11:16:30;;;;;;;3.10;1.50;;;14.30;99.90;;;;;;5116670;27;20330;-65
2021/12/15 11:19:40;;;;;;;4.57;1.70;;;14.50;99.90;;;;;;5113709;27;20188;-65
2021/12/15 11:22:34;;;;;;;2.70;1.50;;;14.70;99.90;;;;;;5113828;27;20254;-64
2021/12/15 11:25:40;;;;;;;4.27;1.50;;;14.90;99.90;;;;;;5094748;28;20205;-66
2021/12/15 11:28:28;;;;;;;2.57;1.30;;;14.90;99.90;;;;;;5109272;27;20193;-64
2021/12/15 11:31:26;;;;;;;6.73;1.53;;;14.70;99.90;;;;;;5117232;27;20201;-65
2021/12/15 11:34:12;;;;;;;5.53;2.13;;;14.70;99.90;;;;;;5115575;27;20215;-66
2021/12/15 11:37:00;;;;;;;7.13;1.70;;;14.80;99.90;;;;;;5100150;28;20189;-63
2021/12/15 11:39:47;;;;;;;3.13;1.43;;;14.90;99.90;;;;;;5119115;28;20844;-63
2021/12/15 11:42:43;;;;;;;3.57;1.40;;;15.00;99.90;;;;;;5123091;28;20712;-62
2021/12/15 11:45:31;;;;;;;3.67;1.40;;;15.10;99.90;;;;;;5121375;27;20896;-64
2021/12/15 11:48:28;;;;;;;8.23;1.53;;;15.10;99.90;;;;;;5105424;27;20292;-62
2021/12/15 11:51:27;;;;;;;4.40;1.53;;;15.20;99.90;;;;;;5119114;28;20192;-64
2021/12/15 11:54:29;;;;;;;4.90;1.67;;;15.30;99.90;;;;;;5107529;28;20189;-63
2021/12/15 11:57:22;;;;;;;5.77;1.50;;;15.30;99.90;;;;;;5107374;27;20759;-63
2021/12/15 12:00:19;;;;;;;4.70;1.60;;;15.20;99.90;;;;;;5111179;27;20192;-63
2021/12/15 12:03:06;;;;;;;7.03;1.80;;;15.00;99.90;;;;;;5122196;28;20260;-64
2021/12/15 12:05:52;;;;;;;7.40;1.60;;;14.90;99.90;;;;;;5116797;27;20251;-64
2021/12/15 12:08:51;;;;;;;4.60;1.83;;;14.70;99.90;;;;;;5103222;27;20832;-64
2021/12/15 12:11:41;;;;;;;10.00;1.50;;;14.70;99.90;;;;;;5104674;28;20281;-63
2021/12/15 12:14:40;;;;;;;2.47;1.43;;;14.70;99.90;;;;;;5108570;28;20192;-64
2021/12/15 12:17:34;;;;;;;2.73;1.33;;;14.80;99.90;;;;;;5118135;27;20348;-63
2021/12/15 12:20:28;;;;;;;6.07;1.53;;;14.80;99.90;;;;;;5122710;28;20664;-63
2021/12/15 12:23:23;;;;;;;2.37;1.30;;;14.80;99.90;;;;;;5115337;27;20194;-65
2021/12/15 12:26:10;;;;;;;2.03;1.30;;;14.70;99.90;;;;;;5112243;27;20303;-65
2021/12/15 12:29:00;;;;;;;4.80;1.50;;;14.70;99.90;;;;;;5123204;27;20819;-65
2021/12/15 12:31:47;;;;;;;4.23;1.17;;;14.60;99.90;;;;;;5115147;27;20212;-65
2021/12/15 12:34:35;;;;;;;2.67;1.00;;;14.50;99.90;;;;;;5118038;28;20221;-64
2021/12/15 12:37:22;;;;;;;3.17;1.37;;;14.40;99.90;;;;;;5117159;27;20215;-66
2021/12/15 12:40:30;;;;;;;3.17;1.10;;;14.40;99.90;;;;;;5119350;27;20181;-65
2021/12/15 12:43:38;;;;;;;1.27;1.00;;;14.30;99.90;;;;;;5123146;27;20279;-64
2021/12/15 12:46:39;;;;;;;1.23;0.93;;;14.30;99.90;;;;;;5124953;27;20192;-65
2021/12/15 13:01:43;;;;;;;5.00;1.20;;;14.20;99.90;;;;;;5113749;27;20263;-66
2021/12/15 13:04:43;;;;;;;2.50;1.20;;;14.10;99.90;;;;;;5104019;27;20213;-65
2021/12/15 13:07:53;;;;;;;4.23;1.33;;;14.10;99.90;;;;;;5116411;27;20181;-66
2021/12/15 13:11:01;;;;;;;1.90;1.10;;;14.10;99.90;;;;;;5121388;27;20226;-65
2021/12/15 13:13:53;;;;;;;2.20;1.07;;;14.00;99.90;;;;;;5122851;27;20177;-66
2021/12/15 13:16:49;;;;;;;1.07;0.97;;;14.00;99.90;;;;;;5106325;27;20197;-65
2021/12/15 13:19:44;;;;;;;1.97;0.83;;;13.90;99.90;;;;;;5106321;27;20260;-66
2021/12/15 13:22:43;;;;;;;2.87;1.03;;;13.90;99.90;;;;;;5117165;27;20231;-65
2021/12/15 13:28:55;;;;;;;3.83;0.97;;;13.90;99.90;;;;;;5125791;27;20189;-66
2021/12/15 13:32:01;;;;;;;3.43;1.53;;;13.90;99.90;;;;;;5109207;27;20184;-66
2021/12/15 13:34:50;;;;;;;1.23;1.00;;;13.90;99.90;;;;;;5102536;27;20201;-65
2021/12/15 13:38:01;;;;;;;3.53;1.17;;;14.00;99.90;;;;;;5103678;27;20189;-65
2021/12/15 13:41:04;;;;;;;3.07;1.20;;;14.00;99.90;;;;;;5122198;27;20188;-65
2021/12/15 13:43:53;;;;;;;3.83;1.50;;;14.00;99.90;;;;;;5112456;27;20263;-64
2021/12/15 13:46:49;;;;;;;1.80;1.00;;;14.00;99.90;;;;;;5117293;27;20197;-64
2021/12/15 13:50:30;;;;;;;4.20;1.20;;;13.90;99.90;;;;;;5113699;27;20194;-64
2021/12/15 13:53:32;;;;;;;3.33;1.20;;;13.90;99.90;;;;;;5094210;27;20188;-64
2021/12/15 13:56:53;;;;;;;2.10;1.30;;;13.90;99.90;;;;;;5116081;27;20192;-66
2021/12/15 14:00:01;;;;;;;6.33;1.50;;;13.80;99.90;;;;;;5114979;27;20774;-66
2021/12/15 14:03:22;;;;;;;4.03;1.40;;;13.80;99.90;;;;;;5111962;27;20221;-66
2021/12/15 14:06:15;;;;;;;2.43;1.30;;;13.80;99.90;;;;;;5105840;27;20220;-65
2021/12/15 14:09:07;;;;;;;3.43;1.43;;;13.70;99.90;;;;;;5120592;27;20820;-66
2021/12/15 14:11:53;;;;;;;3.03;1.10;;;13.70;99.90;;;;;;5120861;27;20197;-64
2021/12/15 14:14:45;;;;;;;2.60;1.10;;;13.70;99.90;;;;;;5123833;27;20192;-66
2021/12/15 14:17:32;;;;;;;4.60;1.30;;;13.70;99.90;;;;;;5127819;27;20206;-64
2021/12/15 14:20:19;;;;;;;3.33;1.33;;;13.60;99.90;;;;;;5121560;27;20844;-64
2021/12/15 14:23:15;;;;;;;4.20;1.30;;;13.50;99.90;;;;;;5128286;27;20637;-63
2021/12/15 14:26:10;;;;;;;3.20;1.13;;;13.50;99.90;;;;;;5126807;27;20300;-64
2021/12/15 14:29:09;;;;;;;5.10;1.37;;;13.50;99.90;;;;;;5120618;27;20177;-65
2021/12/15 14:32:00;;;;;;;4.67;1.27;;;13.50;99.90;;;;;;5112951;27;20268;-65
2021/12/15 14:34:47;;;;;;;2.83;1.40;;;13.40;99.90;;;;;;5098484;27;20307;-65
2021/12/15 14:37:42;;;;;;;3.70;1.37;;;13.30;99.90;;;;;;5117627;27;20185;-62
2021/12/15 14:40:29;;;;;;;5.60;1.30;;;13.30;99.90;;;;;;5106039;27;20191;-62
2021/12/15 14:43:15;;;;;;;3.53;1.23;;;13.30;99.90;;;;;;5120213;27;20979;-64
2021/12/15 14:46:03;;;;;;;7.13;1.50;;;13.30;99.90;;;;;;5088638;28;20661;-64
2021/12/15 14:49:19;;;;;;;5.27;1.60;;;13.30;99.90;;;;;;5086848;28;20185;-64
2021/12/15 14:52:13;;;;;;;4.47;1.60;;;13.20;99.90;;;;;;5108681;27;20287;-63
2021/12/15 14:55:23;;;;;;;5.20;1.40;;;13.20;99.90;;;;;;5096094;27;20181;-65
2021/12/15 14:58:21;;;;;;;5.60;1.40;;;13.30;99.90;;;;;;5097892;27;20284;-65
2021/12/15 15:01:13;;;;;;;3.57;1.40;;;13.20;99.90;;;;;;5094566;27;20251;-65
2021/12/15 15:04:07;;;;;;;1.40;0.90;;;13.00;99.90;;;;;;5101683;28;20233;-65
2021/12/15 15:07:03;;;;;;;1.40;0.80;;;12.80;99.90;;;;;;5095812;28;20308;-64
2021/12/15 15:09:55;;;;;;;0.60;0.60;;;12.70;99.90;;;;;;5095798;28;20190;-65
2021/12/15 15:12:43;;;;;;;0.97;0.60;;;12.50;99.90;;;;;;5097957;28;20185;-64
2021/12/15 15:15:39;;;;;;;0.80;0.50;;;12.30;99.90;;;;;;5090704;28;20220;-65
2021/12/15 15:18:29;;;;;;;1.00;0.57;;;12.20;99.90;;;;;;5091812;27;20734;-65
2021/12/15 15:21:17;;;;;;;1.23;0.60;;;12.20;99.90;;;;;;5097578;27;20595;-65
2021/12/15 15:24:04;;;;;;;2.07;0.90;;;12.30;99.90;;;;;;5083066;28;20589;-63
2021/12/15 15:27:07;;;;;;;1.27;0.70;;;12.20;99.90;;;;;;5080349;28;20430;-65
2021/12/15 15:30:02;;;;;;;3.77;0.80;;;12.30;99.90;;;;;;5095921;28;20219;-65
2021/12/15 15:33:12;;;;;;;1.37;0.70;;;12.30;99.90;;;;;;5095450;28;20880;-64
2021/12/15 15:36:06;;;;;;;2.33;0.70;;;12.30;99.90;;;;;;5079519;28;20198;-66
2021/12/15 15:38:57;;;;;;;2.70;0.70;;;12.30;99.90;;;;;;5096808;28;20185;-64
2021/12/15 15:41:47;;;;;;;2.77;0.90;;;12.30;99.90;;;;;;5093865;28;20185;-64
2021/12/15 15:44:39;;;;;;;2.17;0.97;;;12.20;99.90;;;;;;5098923;28;20304;-63
2021/12/15 15:47:26;;;;;;;3.60;0.80;;;12.10;99.90;;;;;;5073183;28;20657;-65
2021/12/15 15:50:13;;;;;;;3.67;0.90;;;12.10;99.90;;;;;;5086226;28;20220;-63
2021/12/15 15:53:05;;;;;;;3.43;0.60;;;12.10;99.90;;;;;;5087611;28;20268;-65
2021/12/15 15:56:03;;;;;;;1.77;0.63;;;12.10;99.90;;;;;;5087747;28;20193;-65
2021/12/15 15:59:23;;;;;;;1.10;0.60;;;12.10;99.90;;;;;;5087908;28;20530;-64
2021/12/15 16:02:14;;;;;;;8.17;1.00;;;12.10;99.90;;;;;;5098181;28;20189;-65
2021/12/15 16:05:08;;;;;;;7.27;0.97;;;12.10;99.90;;;;;;5089479;28;20210;-64
2021/12/15 16:07:55;;;;;;;0.60;0.50;;;12.00;99.90;;;;;;5097964;28;20209;-65
2021/12/15 16:10:44;;;;;;;2.30;0.93;;;11.90;99.90;;;;;;5100191;28;20185;-64
2021/12/15 16:13:36;;;;;;;2.00;0.97;;;11.90;99.90;;;;;;5075549;28;20197;-64
2021/12/15 16:16:38;;;;;;;0.57;0.53;;;11.90;99.90;;;;;;5094282;28;21120;-65
2021/12/15 16:19:35;;;;;;;1.37;0.77;;;11.90;99.90;;;;;;5098858;27;20200;-65